createdAt,value
2023-12-31T00:11:13.184Z,100436.41
2023-12-31T00:16:18.973Z,100439.41
2023-12-31T00:21:21.929Z,100430.59
2023-12-31T00:26:26.327Z,100430.94
2023-12-31T00:31:40.236Z,100429.97
2023-12-31T00:36:43.087Z,100417.50
2023-12-31T00:41:47.343Z,100424.72
2023-12-31T00:46:51.782Z,100417.63
2023-12-31T00:51:54.764Z,100405.97
2023-12-31T00:57:01.250Z,100407.53
2023-12-31T01:02:07.284Z,100404.88
2023-12-31T01:07:10.219Z,100400.00
2023-12-31T01:12:17.018Z,100381.66
2023-12-31T01:17:21.027Z,100382.41
2023-12-31T01:22:24.401Z,100378.34
2023-12-31T01:27:31.186Z,100365.97
2023-12-31T01:32:44.497Z,100359.66
2023-12-31T01:37:47.641Z,100356.22
2023-12-31T01:42:51.786Z,100352.69
2023-12-31T01:47:55.084Z,100355.53
2023-12-31T01:52:58.259Z,100362.06
2023-12-31T01:58:03.433Z,100346.16
2023-12-31T02:03:07.017Z,100346.63
2023-12-31T02:08:10.040Z,100347.50
2023-12-31T02:13:14.695Z,100341.66
2023-12-31T02:18:17.732Z,100338.50
2023-12-31T02:23:20.912Z,100333.06
2023-12-31T02:28:25.066Z,100333.44
2023-12-31T02:33:27.935Z,100322.13
2023-12-31T02:38:30.819Z,100320.75
2023-12-31T02:43:35.129Z,100305.75
2023-12-31T02:48:38.065Z,100298.78
2023-12-31T02:53:40.944Z,100291.34
2023-12-31T02:58:45.227Z,100286.66
2023-12-31T03:03:48.294Z,100293.13
2023-12-31T03:08:52.304Z,100275.38
2023-12-31T03:13:56.644Z,100272.66
2023-12-31T03:18:59.463Z,100260.44
2023-12-31T03:24:02.261Z,100254.56
2023-12-31T03:29:06.713Z,100255.28
2023-12-31T03:34:09.689Z,100244.47
2023-12-31T03:39:12.927Z,100232.63
2023-12-31T03:44:17.655Z,100235.25
2023-12-31T03:49:20.628Z,100228.50
2023-12-31T03:54:23.470Z,100217.84
2023-12-31T03:59:27.628Z,100219.22
2023-12-31T04:04:31.534Z,100215.66
2023-12-31T04:09:34.522Z,100216.56
2023-12-31T04:14:39.679Z,100210.41
2023-12-31T04:19:42.502Z,100203.25
2023-12-31T04:24:45.298Z,100199.78
2023-12-31T04:29:49.587Z,100197.50
2023-12-31T04:34:54.649Z,100179.53
2023-12-31T04:39:57.581Z,100164.75
2023-12-31T04:45:06.649Z,100156.41
2023-12-31T04:50:10.200Z,100145.75
2023-12-31T04:55:13.180Z,100142.06
2023-12-31T05:00:19.327Z,100132.78
2023-12-31T05:05:22.436Z,100127.31
2023-12-31T05:10:25.281Z,100117.69
2023-12-31T05:15:29.455Z,100106.84
2023-12-31T05:20:32.255Z,100096.06
2023-12-31T05:25:35.071Z,100091.50
2023-12-31T05:30:42.457Z,100074.81
2023-12-31T05:35:45.283Z,100077.59
2023-12-31T05:40:48.137Z,100076.59
2023-12-31T05:45:52.370Z,100061.81
2023-12-31T05:50:55.399Z,100048.28
2023-12-31T05:55:58.309Z,100041.78
2023-12-31T06:01:03.243Z,100042.50
2023-12-31T06:06:06.310Z,100030.78
2023-12-31T06:11:09.116Z,100021.47
2023-12-31T06:16:13.360Z,100005.59
2023-12-31T06:21:16.242Z,100012.84
2023-12-31T06:26:19.045Z,100009.44
2023-12-31T06:31:25.079Z,100015.50
2023-12-31T06:36:28.145Z,100007.19
2023-12-31T06:41:30.934Z,100005.50
2023-12-31T06:46:35.307Z,99993.56
2023-12-31T06:51:38.119Z,99984.09
2023-12-31T06:56:40.902Z,99981.66
2023-12-31T07:01:45.202Z,99970.22
2023-12-31T07:06:48.497Z,99959.31
2023-12-31T07:11:51.321Z,99957.22
2023-12-31T07:16:56.370Z,99958.78
2023-12-31T07:21:59.300Z,99959.25
2023-12-31T07:27:02.114Z,99959.06
2023-12-31T07:32:07.192Z,99954.03
2023-12-31T07:37:10.052Z,99942.53
2023-12-31T07:42:12.918Z,99945.47
2023-12-31T07:47:17.263Z,99933.53
2023-12-31T07:52:21.221Z,99929.75
2023-12-31T07:57:24.127Z,99933.50
2023-12-31T08:02:28.482Z,99933.88
2023-12-31T08:07:31.368Z,99915.66
2023-12-31T08:12:34.340Z,99901.25
2023-12-31T08:17:39.153Z,99897.81
2023-12-31T08:22:42.241Z,99887.91
2023-12-31T08:27:45.107Z,99879.75
2023-12-31T08:32:49.298Z,99890.06
2023-12-31T08:37:53.549Z,99884.41
2023-12-31T08:42:56.465Z,99864.41
2023-12-31T08:48:00.962Z,99852.13
2023-12-31T08:53:04.222Z,99845.19
2023-12-31T08:58:07.356Z,99837.38
2023-12-31T09:03:11.784Z,99828.16
2023-12-31T09:08:14.839Z,99827.16
2023-12-31T09:13:18.644Z,99821.19
2023-12-31T09:18:24.904Z,99818.34
2023-12-31T09:23:27.899Z,99803.97
2023-12-31T09:28:30.788Z,99807.25
2023-12-31T09:33:34.958Z,99796.63
2023-12-31T09:38:37.862Z,99784.94
2023-12-31T09:43:42.369Z,99776.00
2023-12-31T09:48:46.856Z,99768.56
2023-12-31T09:53:53.838Z,99758.31
2023-12-31T09:59:03.329Z,99737.06
2023-12-31T10:04:13.344Z,99737.66
2023-12-31T10:09:20.435Z,99731.28
2023-12-31T10:14:23.709Z,99710.06
2023-12-31T10:19:27.927Z,99703.78
2023-12-31T10:24:30.789Z,99699.94
2023-12-31T10:29:34.201Z,99689.00
2023-12-31T10:34:39.122Z,99680.31
2023-12-31T10:39:42.508Z,99661.78
2023-12-31T10:44:50.877Z,99650.91
2023-12-31T10:49:58.068Z,99637.25
2023-12-31T10:55:02.440Z,99622.13
2023-12-31T11:00:06.263Z,99612.59
2023-12-31T11:05:11.297Z,99608.13
2023-12-31T11:10:14.832Z,99609.44
2023-12-31T11:15:20.926Z,99604.72
2023-12-31T11:20:46.180Z,99592.97
2023-12-31T11:25:50.056Z,99584.47
2023-12-31T11:30:54.428Z,99579.72
2023-12-31T11:36:04.421Z,99565.34
2023-12-31T11:41:09.718Z,99550.44
2023-12-31T11:46:13.145Z,99541.06
2023-12-31T11:51:18.721Z,99535.72
2023-12-31T11:56:22.057Z,99539.69
2023-12-31T12:01:25.092Z,99523.13
2023-12-31T12:06:29.482Z,99519.69
2023-12-31T12:11:32.390Z,99518.38
2023-12-31T12:16:35.297Z,99502.84
2023-12-31T12:21:41.931Z,99488.03
2023-12-31T12:26:45.421Z,99479.50
2023-12-31T12:31:51.248Z,99475.59
2023-12-31T12:36:58.196Z,99469.31
2023-12-31T12:42:02.753Z,99471.25
2023-12-31T12:47:06.083Z,99457.47
2023-12-31T12:52:10.247Z,99433.34
2023-12-31T12:57:13.062Z,99430.00
2023-12-31T13:02:18.536Z,99432.53
2023-12-31T13:07:22.807Z,99434.16
2023-12-31T13:12:25.714Z,99423.91
2023-12-31T13:17:29.592Z,99429.72
2023-12-31T13:22:34.053Z,99415.13
2023-12-31T13:27:36.899Z,99421.94
2023-12-31T13:32:39.784Z,99409.31
2023-12-31T13:37:44.212Z,99407.34
2023-12-31T13:42:47.347Z,99403.81
2023-12-31T13:47:50.372Z,99397.41
2023-12-31T13:52:54.753Z,99399.78
2023-12-31T13:57:57.604Z,99391.38
2023-12-31T14:03:06.109Z,99383.13
2023-12-31T14:08:12.161Z,99384.16
2023-12-31T14:13:15.187Z,99394.59
2023-12-31T14:18:19.162Z,99381.38
2023-12-31T14:23:23.713Z,99385.47
2023-12-31T14:28:26.529Z,99366.94
2023-12-31T14:33:29.456Z,99366.50
2023-12-31T14:38:34.098Z,99394.75
2023-12-31T14:43:37.621Z,99394.44
2023-12-31T14:48:40.695Z,99392.34
2023-12-31T14:53:45.218Z,99382.09
2023-12-31T14:58:49.849Z,99377.16
2023-12-31T15:03:52.783Z,99381.75
2023-12-31T15:08:57.116Z,99369.44
2023-12-31T15:14:00.049Z,99375.66
2023-12-31T15:19:03.052Z,99373.78
2023-12-31T15:24:09.085Z,99376.97
2023-12-31T15:29:11.969Z,99379.25
2023-12-31T15:34:14.928Z,99391.34
2023-12-31T15:39:20.477Z,99382.91
2023-12-31T15:44:23.276Z,99378.63
2023-12-31T15:49:27.096Z,99371.41
2023-12-31T15:54:32.490Z,99380.03
2023-12-31T15:59:37.920Z,99380.09
2023-12-31T16:04:41.218Z,99399.25
2023-12-31T16:09:45.451Z,99397.34
2023-12-31T16:14:48.305Z,99390.59
2023-12-31T16:19:53.147Z,99405.81
2023-12-31T16:24:57.414Z,99393.72
2023-12-31T16:30:00.288Z,99404.91
2023-12-31T16:35:03.277Z,99401.94
2023-12-31T16:40:09.564Z,99408.81
2023-12-31T16:45:14.856Z,99407.03
2023-12-31T16:50:37.227Z,99405.13
2023-12-31T16:55:41.863Z,99400.88
2023-12-31T17:00:45.228Z,99419.94
2023-12-31T17:05:52.462Z,99423.56
2023-12-31T17:10:58.327Z,99431.25
2023-12-31T17:16:01.377Z,99422.75
2023-12-31T17:21:04.383Z,99428.44
2023-12-31T17:26:08.570Z,99423.78
2023-12-31T17:31:11.456Z,99441.63
2023-12-31T17:36:15.151Z,99432.28
2023-12-31T17:41:19.265Z,99437.22
2023-12-31T17:46:22.128Z,99443.56
2023-12-31T17:51:25.106Z,99446.00
2023-12-31T17:56:29.341Z,99445.50
2023-12-31T18:01:32.198Z,99464.53
2023-12-31T18:06:41.555Z,99476.66
2023-12-31T18:11:47.400Z,99476.19
2023-12-31T18:16:50.467Z,99474.47
2023-12-31T18:21:54.267Z,99474.31
2023-12-31T18:26:58.843Z,99479.88
2023-12-31T18:32:02.739Z,99489.25
2023-12-31T18:37:08.513Z,99491.59
2023-12-31T18:42:12.766Z,99493.16
2023-12-31T18:47:15.685Z,99502.13
2023-12-31T18:52:18.543Z,99495.50
2023-12-31T18:57:22.820Z,99502.75
2023-12-31T19:02:25.651Z,99495.00
2023-12-31T19:07:29.054Z,99498.97
2023-12-31T19:12:33.281Z,99509.63
2023-12-31T19:17:36.659Z,99504.22
2023-12-31T19:22:40.290Z,99517.06
2023-12-31T19:27:44.514Z,99518.66
2023-12-31T19:32:47.860Z,99516.44
2023-12-31T19:37:55.777Z,99515.34
2023-12-31T19:43:15.986Z,99517.28
2023-12-31T19:48:24.965Z,99531.22
2023-12-31T19:53:27.875Z,99526.84
2023-12-31T19:58:32.378Z,99528.63
2023-12-31T20:03:35.625Z,99531.63
2023-12-31T20:08:38.502Z,99529.28
2023-12-31T20:13:43.133Z,99536.94
2023-12-31T20:18:46.162Z,99551.47
2023-12-31T20:23:51.721Z,99553.34
2023-12-31T20:28:55.993Z,99559.47
2023-12-31T20:33:59.009Z,99552.94
2023-12-31T20:39:01.857Z,99558.91
2023-12-31T20:44:06.585Z,99561.56
2023-12-31T20:49:09.703Z,99577.81
2023-12-31T20:54:13.342Z,99590.53
2023-12-31T20:59:18.812Z,99581.50
2023-12-31T21:04:23.581Z,99557.69
2023-12-31T21:09:26.853Z,99552.63
2023-12-31T21:14:32.719Z,99563.00
2023-12-31T21:19:35.748Z,99562.41
2023-12-31T21:24:46.049Z,99563.66
2023-12-31T21:29:50.215Z,99557.75
2023-12-31T21:34:53.024Z,99548.09
2023-12-31T21:39:55.981Z,99546.38
2023-12-31T21:45:00.197Z,99547.44
2023-12-31T21:50:03.250Z,99550.59
2023-12-31T21:55:13.945Z,99543.00
2023-12-31T22:00:24.807Z,99538.28
2023-12-31T22:05:27.781Z,99543.25
2023-12-31T22:10:30.859Z,99545.16
2023-12-31T22:15:39.418Z,99546.56
2023-12-31T22:20:44.548Z,99535.63
2023-12-31T22:25:56.865Z,99538.91
2023-12-31T22:31:01.076Z,99531.53
2023-12-31T22:36:04.332Z,99527.81
2023-12-31T22:41:07.326Z,99537.75
2023-12-31T22:46:11.903Z,99538.47
2023-12-31T22:51:17.089Z,99536.53
2023-12-31T22:56:19.951Z,99541.47
2023-12-31T23:01:24.131Z,99526.53
2023-12-31T23:06:29.261Z,99534.34
2023-12-31T23:11:32.240Z,99539.94
2023-12-31T23:16:39.497Z,99529.91
2023-12-31T23:21:42.407Z,99540.97
2023-12-31T23:26:45.287Z,99546.66
2023-12-31T23:31:49.508Z,99538.47
2023-12-31T23:36:58.252Z,99546.13
2023-12-31T23:42:08.086Z,99542.19
2023-12-31T23:47:13.447Z,99543.69
2023-12-31T23:52:18.158Z,99545.75
2023-12-31T23:57:23.468Z,99543.41
